Terminal Aerodrome Forecast
Issued by NWS Pendleton, OR

Home | Current Version | Previous Version | Text Only | Print | Product List | Glossary On
Versions: 1 2 3 4 5 6 7 8 9 10 11 12 13 14
130
FTUS46 KPDT 091537 AAB
TAFPDT
TAF AMD
KPDT 091537Z 0916/1012 12005KT 1SM BR BKN001
      TEMPO 0916/0917 5SM BR FEW005
     FM091700 02005KT P6SM SKC
     FM100300 13005KT P6SM FEW250=

USA.gov is the U.S. government's official web portal to all federal, state and local government web resources and services.